createdAt,value
2023-04-23T00:00:13.163Z,10.67
2023-04-23T00:03:05.361Z,10.64
2023-04-23T00:05:34.641Z,10.60
2023-04-23T00:08:03.616Z,10.61
2023-04-23T00:10:32.585Z,10.62
2023-04-23T00:13:01.663Z,10.62
2023-04-23T00:15:30.838Z,10.66
2023-04-23T00:17:59.295Z,10.69
2023-04-23T00:20:27.820Z,10.70
2023-04-23T00:22:56.194Z,10.72
2023-04-23T00:25:24.670Z,10.71
2023-04-23T00:27:53.094Z,10.70
2023-04-23T00:30:21.466Z,10.71
2023-04-23T00:32:49.908Z,10.71
2023-04-23T00:35:18.874Z,10.69
2023-04-23T00:37:47.883Z,10.70
2023-04-23T00:40:16.342Z,10.70
2023-04-23T00:42:45.464Z,10.71
2023-04-23T00:45:14.456Z,10.71
2023-04-23T00:47:43.239Z,10.71
2023-04-23T00:50:13.374Z,10.72
2023-04-23T00:52:42.180Z,10.70
2023-04-23T00:55:10.733Z,10.66
2023-04-23T00:57:39.548Z,10.67
2023-04-23T01:00:08.901Z,10.65
2023-04-23T01:02:37.799Z,10.68
2023-04-23T01:05:08.088Z,10.67
2023-04-23T01:07:37.754Z,10.73
2023-04-23T01:10:07.216Z,10.76
2023-04-23T01:12:35.658Z,10.77
2023-04-23T01:15:04.631Z,10.78
2023-04-23T01:17:34.750Z,10.79
2023-04-23T01:20:03.645Z,10.80
2023-04-23T01:22:34.158Z,10.81
2023-04-23T01:25:03.552Z,10.82
2023-04-23T01:27:33.004Z,10.82
2023-04-23T01:30:05.084Z,10.83
2023-04-23T01:32:35.699Z,10.81
2023-04-23T01:35:05.085Z,10.81
2023-04-23T01:37:34.376Z,10.79
2023-04-23T01:40:02.948Z,10.77
2023-04-23T01:42:31.327Z,10.76
2023-04-23T01:44:59.685Z,10.75
2023-04-23T01:47:28.368Z,10.73
2023-04-23T01:49:56.991Z,10.71
2023-04-23T01:52:25.687Z,10.59
2023-04-23T01:54:54.465Z,10.57
2023-04-23T01:57:26.822Z,10.55
2023-04-23T01:59:59.320Z,10.53
2023-04-23T02:02:27.817Z,10.51
2023-04-23T02:04:57.905Z,10.49
2023-04-23T02:07:26.344Z,10.46
2023-04-23T02:09:54.958Z,10.45
2023-04-23T02:12:23.572Z,10.41
2023-04-23T02:14:52.908Z,10.31
2023-04-23T02:17:23.182Z,10.21
2023-04-23T02:19:51.852Z,10.16
2023-04-23T02:22:20.186Z,10.12
2023-04-23T02:24:48.614Z,10.05
2023-04-23T02:27:17.489Z,10.02
2023-04-23T02:29:46.633Z,9.99
2023-04-23T02:32:15.319Z,9.94
2023-04-23T02:34:43.907Z,9.83
2023-04-23T02:37:12.484Z,9.65
2023-04-23T02:39:41.032Z,9.63
2023-04-23T02:42:10.099Z,9.60
2023-04-23T02:44:38.984Z,9.56
2023-04-23T02:47:07.507Z,9.47
2023-04-23T02:49:36.603Z,9.45
2023-04-23T02:52:05.171Z,9.43
2023-04-23T02:54:33.659Z,9.44
2023-04-23T02:57:02.419Z,9.46
2023-04-23T02:59:30.815Z,9.48
2023-04-23T03:01:59.270Z,9.52
2023-04-23T03:04:28.057Z,9.55
2023-04-23T03:06:56.844Z,9.57
2023-04-23T03:09:26.356Z,9.59
2023-04-23T03:11:54.779Z,9.60
2023-04-23T03:14:23.301Z,9.60
2023-04-23T03:16:51.668Z,9.61
2023-04-23T03:19:20.184Z,9.60
2023-04-23T03:21:48.580Z,9.60
2023-04-23T03:24:17.447Z,9.56
2023-04-23T03:26:48.348Z,9.52
2023-04-23T03:29:16.884Z,9.50
2023-04-23T03:31:45.780Z,9.53
2023-04-23T03:34:14.863Z,9.55
2023-04-23T03:36:44.991Z,9.57
2023-04-23T03:39:13.890Z,9.56
2023-04-23T03:41:49.912Z,9.57
2023-04-23T03:44:20.393Z,9.58
2023-04-23T03:46:48.912Z,9.61
2023-04-23T03:49:18.009Z,9.62
2023-04-23T03:51:46.374Z,9.63
2023-04-23T03:54:14.742Z,9.64
2023-04-23T03:57:04.017Z,9.64
2023-04-23T03:59:37.105Z,9.64
2023-04-23T04:02:06.302Z,9.64
2023-04-23T04:04:35.193Z,9.63
2023-04-23T04:07:03.923Z,9.63
2023-04-23T04:09:32.639Z,9.61
2023-04-23T04:12:04.261Z,9.66
2023-04-23T04:14:33.094Z,9.71
2023-04-23T04:17:01.452Z,9.75
2023-04-23T04:19:29.800Z,9.79
2023-04-23T04:21:58.173Z,9.81
2023-04-23T04:24:26.594Z,9.84
2023-04-23T04:26:54.985Z,9.87
2023-04-23T04:29:24.466Z,9.89
2023-04-23T04:31:54.248Z,9.91
2023-04-23T04:34:23.651Z,9.94
2023-04-23T04:36:54.088Z,9.97
2023-04-23T04:39:22.461Z,9.98
2023-04-23T04:41:50.828Z,10.00
2023-04-23T04:44:19.520Z,10.00
2023-04-23T04:46:48.234Z,10.01
2023-04-23T04:49:19.771Z,10.02
2023-04-23T04:51:48.379Z,10.01
2023-04-23T04:54:16.950Z,9.94
2023-04-23T04:56:45.656Z,9.93
2023-04-23T04:59:14.152Z,9.91
2023-04-23T05:01:42.708Z,9.86
2023-04-23T05:04:11.579Z,9.81
2023-04-23T05:06:40.108Z,9.69
2023-04-23T05:09:08.718Z,9.69
2023-04-23T05:11:37.248Z,9.71
2023-04-23T05:14:05.749Z,9.79
2023-04-23T05:16:34.776Z,9.85
2023-04-23T05:19:03.152Z,9.89
2023-04-23T05:21:31.804Z,10.03
2023-04-23T05:24:00.211Z,10.13
2023-04-23T05:26:29.198Z,10.21
2023-04-23T05:28:57.608Z,10.27
2023-04-23T05:31:27.037Z,10.33
2023-04-23T05:33:57.152Z,10.41
2023-04-23T05:36:26.084Z,10.46
2023-04-23T05:38:54.520Z,10.52
2023-04-23T05:41:22.921Z,10.60
2023-04-23T05:43:51.321Z,10.67
2023-04-23T05:46:19.699Z,10.72
2023-04-23T05:48:48.169Z,10.77
2023-04-23T05:51:17.335Z,10.83
2023-04-23T05:53:45.859Z,10.89
2023-04-23T05:56:14.218Z,10.94
2023-04-23T05:58:42.720Z,10.99
2023-04-23T06:01:11.688Z,11.10
2023-04-23T06:03:45.894Z,11.15
2023-04-23T06:06:14.623Z,11.16
2023-04-23T06:08:43.239Z,11.23
2023-04-23T06:11:11.692Z,11.32
2023-04-23T06:13:43.645Z,11.38
2023-04-23T06:16:12.546Z,11.44
2023-04-23T06:18:41.163Z,11.50
2023-04-23T06:21:09.678Z,11.53
2023-04-23T06:23:38.152Z,11.62
2023-04-23T06:26:06.652Z,11.69
2023-04-23T06:28:35.055Z,11.76
2023-04-23T06:31:22.478Z,11.83
2023-04-23T06:33:51.367Z,11.88
2023-04-23T06:36:19.730Z,11.95
2023-04-23T06:38:48.209Z,12.01
2023-04-23T06:41:16.612Z,12.08
2023-04-23T06:43:46.313Z,12.11
2023-04-23T06:46:20.931Z,12.18
2023-04-23T06:48:49.389Z,12.16
2023-04-23T06:51:17.773Z,12.26
2023-04-23T06:53:47.630Z,12.31
2023-04-23T06:56:15.953Z,12.39
2023-04-23T06:58:44.332Z,12.47
2023-04-23T07:01:17.886Z,12.54
2023-04-23T07:03:49.409Z,12.61
2023-04-23T07:06:17.968Z,12.68
2023-04-23T07:08:46.424Z,12.76
2023-04-23T07:11:14.896Z,12.82
2023-04-23T07:13:43.376Z,12.87
2023-04-23T07:16:11.793Z,12.95
2023-04-23T07:18:40.371Z,13.03
2023-04-23T07:21:08.977Z,13.11
2023-04-23T07:23:37.391Z,13.18
2023-04-23T07:26:05.944Z,13.25
2023-04-23T07:28:34.787Z,13.32
2023-04-23T07:31:03.194Z,13.40
2023-04-23T07:33:31.515Z,13.47
2023-04-23T07:35:59.896Z,13.54
2023-04-23T07:38:28.214Z,13.62
2023-04-23T07:40:56.585Z,13.70
2023-04-23T07:43:25.003Z,13.77
2023-04-23T07:45:53.511Z,13.84
2023-04-23T07:48:21.883Z,13.89
2023-04-23T07:50:51.167Z,13.97
2023-04-23T07:53:19.887Z,14.06
2023-04-23T07:55:48.337Z,14.15
2023-04-23T07:58:16.933Z,14.22
2023-04-23T08:00:45.365Z,14.29
2023-04-23T08:03:13.844Z,14.33
2023-04-23T08:05:42.284Z,14.39
2023-04-23T08:08:12.292Z,14.47
2023-04-23T08:10:40.918Z,14.54
2023-04-23T08:13:09.415Z,14.62
2023-04-23T08:15:38.054Z,14.70
2023-04-23T08:18:06.861Z,14.78
2023-04-23T08:20:35.282Z,14.85
2023-04-23T08:23:04.919Z,14.90
2023-04-23T08:25:33.794Z,14.97
2023-04-23T08:28:02.597Z,15.02
2023-04-23T08:30:31.359Z,15.11
2023-04-23T08:32:59.850Z,15.20
2023-04-23T08:35:28.250Z,15.30
2023-04-23T08:37:56.708Z,15.36
2023-04-23T08:40:27.115Z,15.42
2023-04-23T08:43:06.476Z,15.50
2023-04-23T08:45:41.707Z,15.58
2023-04-23T08:48:10.474Z,15.68
2023-04-23T08:50:39.642Z,15.77
2023-04-23T08:53:08.385Z,15.86
2023-04-23T08:55:36.893Z,15.91
2023-04-23T08:58:06.628Z,16.00
2023-04-23T09:00:35.685Z,16.08
2023-04-23T09:03:04.982Z,16.12
2023-04-23T09:05:33.849Z,16.21
2023-04-23T09:08:02.159Z,16.28
2023-04-23T09:10:30.685Z,16.37
2023-04-23T09:12:59.260Z,16.45
2023-04-23T09:15:27.752Z,16.52
2023-04-23T09:17:57.398Z,16.57
2023-04-23T09:20:26.192Z,16.57
2023-04-23T09:22:54.552Z,16.63
2023-04-23T09:25:24.316Z,16.75
2023-04-23T09:27:53.075Z,16.86
2023-04-23T09:30:21.644Z,16.92
2023-04-23T09:32:50.133Z,16.98
2023-04-23T09:35:22.295Z,17.06
2023-04-23T09:37:53.112Z,17.17
2023-04-23T09:40:23.995Z,17.20
2023-04-23T09:42:54.874Z,17.30
2023-04-23T09:45:25.970Z,17.39
2023-04-23T09:47:56.109Z,17.57
2023-04-23T09:50:42.785Z,17.72
2023-04-23T09:53:14.218Z,17.91
2023-04-23T09:55:45.737Z,18.02
2023-04-23T09:58:15.994Z,18.13
2023-04-23T10:00:44.488Z,18.21
2023-04-23T10:03:13.017Z,18.21
2023-04-23T10:08:14.748Z,18.12
2023-04-23T10:10:59.605Z,18.06
2023-04-23T10:13:31.691Z,17.85
2023-04-23T10:16:14.048Z,17.65
2023-04-23T10:18:47.215Z,17.48
2023-04-23T10:21:16.761Z,17.37
2023-04-23T10:23:47.558Z,17.26
2023-04-23T10:26:17.037Z,17.22
2023-04-23T10:28:48.861Z,17.03
2023-04-23T10:31:20.066Z,17.10
2023-04-23T10:36:26.063Z,17.30
2023-04-23T10:38:59.096Z,17.45
2023-04-23T10:41:31.507Z,17.75
2023-04-23T10:43:59.817Z,18.04
2023-04-23T10:46:30.473Z,18.32
2023-04-23T10:49:14.921Z,18.58
2023-04-23T10:52:18.097Z,18.74
2023-04-23T10:54:36.809Z,18.96
2023-04-23T10:57:07.079Z,19.14
2023-04-23T10:59:38.705Z,19.31
2023-04-23T11:02:12.230Z,19.48
2023-04-23T11:05:01.827Z,19.56
2023-04-23T11:07:32.250Z,19.62
2023-04-23T11:10:11.150Z,19.74
2023-04-23T11:12:39.985Z,19.75
2023-04-23T11:15:15.733Z,19.70
2023-04-23T11:17:44.179Z,19.69
2023-04-23T11:20:15.300Z,19.73
2023-04-23T11:22:44.820Z,19.89
2023-04-23T11:25:15.116Z,20.04
2023-04-23T11:27:44.514Z,20.19
2023-04-23T11:30:14.953Z,20.39
2023-04-23T11:32:49.638Z,20.48
2023-04-23T11:35:23.406Z,20.58
2023-04-23T11:37:51.946Z,20.77
2023-04-23T11:40:22.078Z,20.92
2023-04-23T11:42:51.850Z,21.00
2023-04-23T11:45:24.064Z,21.05
2023-04-23T11:47:56.365Z,21.11
2023-04-23T11:50:33.714Z,21.17
2023-04-23T11:53:11.589Z,21.22
2023-04-23T11:55:44.252Z,21.28
2023-04-23T11:58:13.091Z,21.37
2023-04-23T12:00:41.601Z,21.36
2023-04-23T12:03:10.210Z,21.32
2023-04-23T12:05:44.262Z,21.23
2023-04-23T12:08:17.169Z,21.22
2023-04-23T12:10:54.240Z,21.17
2023-04-23T12:13:27.607Z,20.92
2023-04-23T12:15:58.345Z,20.72
2023-04-23T12:18:33.958Z,20.49
2023-04-23T12:21:09.994Z,20.27
2023-04-23T12:23:41.842Z,20.12
2023-04-23T12:26:16.808Z,20.30
2023-04-23T12:28:55.883Z,20.66
2023-04-23T12:31:25.919Z,20.96
2023-04-23T12:34:07.747Z,21.31
2023-04-23T12:36:37.714Z,21.65
2023-04-23T12:39:27.332Z,21.84
2023-04-23T12:42:00.405Z,21.81
2023-04-23T12:44:29.658Z,21.78
2023-04-23T12:47:06.097Z,21.93
2023-04-23T12:49:36.281Z,22.16
2023-04-23T12:52:05.727Z,22.40
2023-04-23T12:54:38.573Z,22.63
2023-04-23T12:57:08.488Z,22.91
2023-04-23T12:59:36.878Z,23.15
2023-04-23T13:02:07.176Z,23.16
2023-04-23T13:04:36.672Z,23.20
2023-04-23T13:07:05.168Z,23.43
2023-04-23T13:09:36.355Z,23.65
2023-04-23T13:12:04.788Z,23.87
2023-04-23T13:14:33.299Z,24.07
2023-04-23T13:17:01.973Z,24.18
2023-04-23T13:19:30.484Z,24.44
2023-04-23T13:21:59.145Z,24.76
2023-04-23T13:24:27.475Z,24.89
2023-04-23T13:26:57.163Z,25.19
2023-04-23T13:29:27.564Z,25.26
2023-04-23T13:31:56.977Z,25.26
2023-04-23T13:34:25.507Z,25.40
2023-04-23T13:36:53.884Z,25.56
2023-04-23T13:39:24.055Z,25.69
2023-04-23T13:42:06.223Z,25.79
2023-04-23T13:44:37.816Z,26.02
2023-04-23T13:47:06.123Z,26.07
2023-04-23T13:49:34.542Z,26.20
2023-04-23T13:52:07.129Z,26.35
2023-04-23T13:54:39.386Z,26.39
2023-04-23T13:57:08.104Z,26.54
2023-04-23T13:59:36.553Z,26.52
2023-04-23T14:02:05.043Z,26.57
2023-04-23T14:04:33.651Z,26.72
2023-04-23T14:07:01.997Z,26.62
2023-04-23T14:09:30.528Z,26.50
2023-04-23T14:11:59.015Z,26.43
2023-04-23T14:14:27.421Z,26.52
2023-04-23T14:16:55.948Z,26.45
2023-04-23T14:19:24.513Z,26.41
2023-04-23T14:21:53.070Z,26.52
2023-04-23T14:24:29.037Z,26.47
2023-04-23T14:26:57.760Z,26.42
2023-04-23T14:29:36.651Z,26.11
2023-04-23T14:32:05.126Z,25.52
2023-04-23T14:34:36.050Z,24.97
2023-04-23T14:37:04.902Z,24.55
2023-04-23T14:39:34.439Z,24.13
2023-04-23T14:42:03.183Z,23.79
2023-04-23T14:44:32.153Z,23.30
2023-04-23T14:47:00.472Z,23.01
2023-04-23T14:49:28.918Z,22.71
2023-04-23T14:51:58.395Z,22.58
2023-04-23T14:54:26.888Z,22.41
2023-04-23T14:56:55.362Z,22.20
2023-04-23T14:59:23.926Z,21.98
2023-04-23T15:01:52.369Z,21.73
2023-04-23T15:04:21.107Z,21.55
2023-04-23T15:06:49.703Z,21.37
2023-04-23T15:09:18.265Z,21.19
2023-04-23T15:11:46.593Z,21.00
2023-04-23T15:14:25.845Z,20.88
2023-04-23T15:16:54.295Z,20.70
2023-04-23T15:19:22.798Z,20.48
2023-04-23T15:21:51.348Z,20.32
2023-04-23T15:24:19.876Z,20.24
2023-04-23T15:26:49.762Z,20.23
2023-04-23T15:29:19.216Z,20.23
2023-04-23T15:31:47.624Z,20.20
2023-04-23T15:34:16.052Z,20.19
2023-04-23T15:36:44.410Z,20.20
2023-04-23T15:39:12.876Z,20.17
2023-04-23T15:41:42.279Z,20.12
2023-04-23T15:44:12.013Z,20.00
2023-04-23T15:46:40.897Z,19.94
2023-04-23T15:49:09.510Z,19.89
2023-04-23T15:51:37.981Z,19.85
2023-04-23T15:54:08.798Z,19.83
2023-04-23T15:56:37.446Z,19.78
2023-04-23T15:59:06.272Z,19.67
2023-04-23T16:01:36.316Z,19.68
2023-04-23T16:04:10.997Z,19.61
2023-04-23T16:06:40.573Z,19.53
2023-04-23T16:09:09.209Z,19.46
2023-04-23T16:11:38.106Z,19.43
2023-04-23T16:14:07.008Z,19.43
2023-04-23T16:16:37.586Z,19.40
2023-04-23T16:19:06.853Z,19.34
2023-04-23T16:21:35.376Z,19.25
2023-04-23T16:24:04.807Z,19.21
2023-04-23T16:26:33.757Z,19.19
2023-04-23T16:31:33.812Z,19.00
2023-04-23T16:34:02.528Z,18.89
2023-04-23T16:36:32.737Z,18.70
2023-04-23T16:39:01.113Z,18.56
2023-04-23T16:41:29.514Z,18.26
2023-04-23T16:43:58.503Z,18.25
2023-04-23T16:46:30.221Z,18.13
2023-04-23T16:48:58.734Z,17.99
2023-04-23T16:51:28.532Z,17.83
2023-04-23T16:53:57.356Z,17.73
2023-04-23T16:56:27.034Z,17.62
2023-04-23T16:58:55.462Z,17.51
2023-04-23T17:01:23.920Z,17.39
2023-04-23T17:03:52.495Z,17.29
2023-04-23T17:06:32.082Z,17.19
2023-04-23T17:09:02.138Z,17.09
2023-04-23T17:11:31.425Z,16.99
2023-04-23T17:13:59.829Z,16.84
2023-04-23T17:16:28.246Z,16.78
2023-04-23T17:18:56.925Z,16.72
2023-04-23T17:21:26.146Z,16.63
2023-04-23T17:23:54.632Z,16.49
2023-04-23T17:26:23.065Z,16.47
2023-04-23T17:28:51.584Z,16.39
2023-04-23T17:31:20.304Z,16.27
2023-04-23T17:33:50.517Z,16.27
2023-04-23T17:36:18.890Z,16.21
2023-04-23T17:38:47.347Z,16.15
2023-04-23T17:41:17.068Z,16.09
2023-04-23T17:43:45.539Z,15.94
2023-04-23T17:46:14.014Z,15.97
2023-04-23T17:48:42.576Z,15.94
2023-04-23T17:51:11.243Z,15.90
2023-04-23T17:53:40.015Z,15.85
2023-04-23T17:56:08.397Z,15.80
2023-04-23T17:58:38.203Z,15.72
2023-04-23T18:01:10.629Z,15.69
2023-04-23T18:03:39.152Z,15.65
2023-04-23T18:06:09.386Z,15.61
2023-04-23T18:08:39.868Z,15.59
2023-04-23T18:11:09.738Z,15.55
2023-04-23T18:13:38.211Z,15.51
2023-04-23T18:16:06.721Z,15.47
2023-04-23T18:18:35.092Z,15.44
2023-04-23T18:21:04.786Z,15.39
2023-04-23T18:23:36.059Z,15.36
2023-04-23T18:26:04.589Z,15.28
2023-04-23T18:28:37.278Z,15.30
2023-04-23T18:31:05.808Z,15.27
2023-04-23T18:33:43.256Z,15.23
2023-04-23T18:36:22.290Z,15.19
2023-04-23T18:38:50.735Z,15.17
2023-04-23T18:41:19.090Z,15.14
2023-04-23T18:43:47.465Z,15.12
2023-04-23T18:46:16.352Z,15.09
2023-04-23T18:49:29.334Z,15.06
2023-04-23T18:51:57.817Z,14.99
2023-04-23T18:54:27.136Z,14.93
2023-04-23T18:56:55.807Z,14.87
2023-04-23T18:59:24.224Z,14.75
2023-04-23T19:01:52.688Z,14.78
2023-04-23T19:04:21.862Z,14.74
2023-04-23T19:06:50.330Z,14.70
2023-04-23T19:09:18.641Z,14.66
2023-04-23T19:11:46.968Z,14.59
2023-04-23T19:14:16.459Z,14.55
2023-04-23T19:16:45.132Z,14.49
2023-04-23T19:19:14.049Z,14.43
2023-04-23T19:21:42.590Z,14.41
2023-04-23T19:24:11.216Z,14.40
2023-04-23T19:26:39.615Z,14.35
2023-04-23T19:29:08.457Z,14.31
2023-04-23T19:31:36.995Z,14.27
2023-04-23T19:34:05.591Z,14.23
2023-04-23T19:36:34.046Z,14.20
2023-04-23T19:39:02.622Z,14.16
2023-04-23T19:41:31.243Z,14.05
2023-04-23T19:43:59.603Z,14.05
2023-04-23T19:46:28.169Z,13.96
2023-04-23T19:48:57.495Z,13.90
2023-04-23T19:51:28.375Z,13.88
2023-04-23T19:53:58.343Z,13.81
2023-04-23T19:56:26.865Z,13.72
2023-04-23T19:58:55.232Z,13.67
2023-04-23T20:01:23.802Z,13.62
2023-04-23T20:03:53.981Z,13.56
2023-04-23T20:06:22.520Z,13.52
2023-04-23T20:09:07.859Z,13.50
2023-04-23T20:11:36.663Z,13.46
2023-04-23T20:14:05.507Z,13.43
2023-04-23T20:16:34.635Z,13.41
2023-04-23T20:19:03.764Z,13.38
2023-04-23T20:21:32.081Z,13.33
2023-04-23T20:24:00.504Z,13.37
2023-04-23T20:26:29.089Z,13.35
2023-04-23T20:28:57.553Z,13.31
2023-04-23T20:31:27.119Z,13.28
2023-04-23T20:33:56.591Z,13.22
2023-04-23T20:36:29.090Z,13.19
2023-04-23T20:39:03.432Z,13.14
2023-04-23T20:41:34.662Z,13.19
2023-04-23T20:44:05.351Z,13.20
2023-04-23T20:46:33.832Z,13.18
2023-04-23T20:49:03.596Z,13.15
2023-04-23T20:51:35.285Z,13.11
2023-04-23T20:54:04.773Z,13.07
2023-04-23T20:56:33.156Z,13.03
2023-04-23T20:59:01.586Z,13.02
2023-04-23T21:01:30.111Z,13.01
2023-04-23T21:04:00.664Z,12.98
2023-04-23T21:06:31.490Z,12.93
2023-04-23T21:08:59.998Z,12.93
2023-04-23T21:11:29.429Z,12.92
2023-04-23T21:14:00.219Z,12.89
2023-04-23T21:16:29.286Z,12.88
2023-04-23T21:18:57.789Z,12.82
2023-04-23T21:21:29.865Z,12.84
2023-04-23T21:24:01.040Z,12.82
2023-04-23T21:26:30.762Z,12.78
2023-04-23T21:28:59.165Z,12.74
2023-04-23T21:31:36.581Z,12.64
2023-04-23T21:34:05.114Z,12.64
2023-04-23T21:36:33.591Z,12.59
2023-04-23T21:39:02.245Z,12.57
2023-04-23T21:41:31.164Z,12.54
2023-04-23T21:43:59.639Z,12.48
2023-04-23T21:46:28.173Z,12.47
2023-04-23T21:48:56.774Z,12.41
2023-04-23T21:51:28.508Z,12.43
2023-04-23T21:53:57.254Z,12.41
2023-04-23T21:56:25.968Z,12.39
2023-04-23T21:58:54.431Z,12.37
2023-04-23T22:01:22.892Z,12.35
2023-04-23T22:03:51.988Z,12.34
2023-04-23T22:06:20.511Z,12.30
2023-04-23T22:08:49.142Z,12.27
2023-04-23T22:11:17.579Z,12.25
2023-04-23T22:13:46.129Z,12.21
2023-04-23T22:16:27.561Z,12.19
2023-04-23T22:18:57.652Z,12.18
2023-04-23T22:21:26.185Z,12.15
2023-04-23T22:23:54.564Z,12.06
2023-04-23T22:26:23.072Z,12.02
2023-04-23T22:28:51.436Z,12.00
2023-04-23T22:31:19.826Z,12.03
2023-04-23T22:33:48.142Z,12.02
2023-04-23T22:36:17.120Z,11.96
2023-04-23T22:38:46.275Z,11.99
2023-04-23T22:41:14.741Z,11.97
2023-04-23T22:43:43.405Z,11.98
2023-04-23T22:46:11.814Z,11.97
2023-04-23T22:48:45.003Z,11.95
2023-04-23T22:51:13.897Z,11.91
2023-04-23T22:53:42.260Z,11.89
2023-04-23T22:56:10.649Z,11.86
2023-04-23T22:58:39.158Z,11.84
2023-04-23T23:01:07.561Z,11.82
2023-04-23T23:03:36.104Z,11.78
2023-04-23T23:06:04.725Z,11.75
2023-04-23T23:08:33.048Z,11.73
2023-04-23T23:11:01.394Z,11.69
2023-04-23T23:13:30.256Z,11.65
2023-04-23T23:16:00.767Z,11.61
2023-04-23T23:18:29.325Z,11.59
2023-04-23T23:20:57.807Z,11.56
2023-04-23T23:23:26.566Z,11.51
2023-04-23T23:25:55.518Z,11.47
2023-04-23T23:28:23.906Z,11.45
2023-04-23T23:30:53.960Z,11.46
2023-04-23T23:33:22.612Z,11.44
2023-04-23T23:35:51.210Z,11.40
2023-04-23T23:38:19.741Z,11.37
2023-04-23T23:40:48.328Z,11.34
2023-04-23T23:43:16.676Z,11.32
2023-04-23T23:45:45.056Z,11.28
2023-04-23T23:48:13.653Z,11.24
2023-04-23T23:50:42.150Z,11.23
2023-04-23T23:53:10.626Z,11.26
2023-04-23T23:55:41.143Z,11.31
2023-04-23T23:58:09.520Z,11.37
